Time;durP1;ratioP1;P1;durP2;ratioP2;P2;SDS_P1;SDS_P2;PMS_P1;PMS_P2;Temp;Humidity;BMP_temperature;BMP_pressure;BME280_temperature;BME280_humidity;BME280_pressure;Samples;Min_cycle;Max_cycle;Signal;HPM_P1;HPM_P2
2021/07/19 00:00:14;;;;;;;6.00;3.80;;;19.00;80.90;;;;;;5094864;28;20460;-74
2021/07/19 00:02:40;;;;;;;3.85;3.35;;;19.00;81.20;;;;;;5096818;28;20035;-76
2021/07/19 00:05:09;;;;;;;5.70;3.78;;;18.90;81.20;;;;;;5095870;28;20028;-76
2021/07/19 00:07:35;;;;;;;6.07;4.43;;;18.80;81.50;;;;;;5096027;28;20020;-75
2021/07/19 00:10:05;;;;;;;7.32;3.65;;;18.80;81.50;;;;;;5095216;28;20052;-76
2021/07/19 00:12:30;;;;;;;4.15;3.75;;;18.70;81.70;;;;;;5094221;28;20035;-76
2021/07/19 00:14:56;;;;;;;4.78;4.35;;;18.70;82.00;;;;;;5094958;28;20032;-82
2021/07/19 00:17:22;;;;;;;6.47;4.55;;;18.60;82.20;;;;;;5096508;28;20360;-76
2021/07/19 00:19:49;;;;;;;5.90;4.13;;;18.50;82.60;;;;;;5095379;28;20024;-75
2021/07/19 00:22:17;;;;;;;5.63;4.13;;;18.30;83.20;;;;;;5080947;28;20176;-76
2021/07/19 00:24:43;;;;;;;7.05;4.85;;;18.30;83.60;;;;;;5101132;28;20080;-75
2021/07/19 00:27:08;;;;;;;5.50;4.82;;;18.20;83.90;;;;;;5098872;28;20020;-76
2021/07/19 00:29:34;;;;;;;6.65;4.80;;;18.20;84.20;;;;;;5080876;28;20028;-76
2021/07/19 00:32:00;;;;;;;6.30;4.45;;;18.10;84.30;;;;;;5077777;28;20032;-77
2021/07/19 00:34:25;;;;;;;9.05;4.55;;;18.10;84.40;;;;;;5093986;28;20111;-76
2021/07/19 00:36:54;;;;;;;6.95;5.03;;;18.00;84.80;;;;;;5077820;28;20112;-75
2021/07/19 00:39:21;;;;;;;7.22;4.93;;;17.90;85.20;;;;;;5094435;28;20051;-76
2021/07/19 00:41:47;;;;;;;5.72;4.32;;;17.80;85.70;;;;;;5095508;28;20020;-76
2021/07/19 00:44:17;;;;;;;9.70;5.00;;;17.70;86.10;;;;;;5094144;28;20116;-76
2021/07/19 00:46:43;;;;;;;9.60;5.47;;;17.70;86.30;;;;;;5078663;28;20024;-75
2021/07/19 00:49:11;;;;;;;6.60;5.00;;;17.60;86.50;;;;;;5094598;28;20074;-76
2021/07/19 00:51:37;;;;;;;8.38;5.47;;;17.60;86.80;;;;;;5094243;28;20047;-76
2021/07/19 00:54:04;;;;;;;8.10;5.78;;;17.50;87.00;;;;;;5077505;28;20056;-77
2021/07/19 00:56:31;;;;;;;10.27;6.20;;;17.50;87.20;;;;;;5094584;28;20036;-76
2021/07/19 00:58:59;;;;;;;8.32;5.93;;;17.40;87.40;;;;;;5095265;28;20020;-76
2021/07/19 01:01:27;;;;;;;6.20;5.60;;;17.40;87.60;;;;;;5093836;28;20024;-75
2021/07/19 01:03:56;;;;;;;9.30;5.72;;;17.40;87.90;;;;;;5093791;28;20028;-76
2021/07/19 01:06:22;;;;;;;7.72;5.47;;;17.40;88.10;;;;;;5093194;28;20016;-75
2021/07/19 01:08:51;;;;;;;7.60;5.95;;;17.40;88.10;;;;;;5093906;28;20032;-76
2021/07/19 01:11:18;;;;;;;10.20;5.63;;;17.40;88.20;;;;;;5094933;28;20028;-76
2021/07/19 01:13:44;;;;;;;9.80;5.20;;;17.40;88.30;;;;;;5093385;28;20048;-75
2021/07/19 01:16:10;;;;;;;9.40;5.63;;;17.30;88.40;;;;;;5093620;28;20380;-76
2021/07/19 01:18:36;;;;;;;7.63;5.47;;;17.30;88.70;;;;;;5077479;28;20073;-76
2021/07/19 01:21:06;;;;;;;8.50;5.65;;;17.30;88.90;;;;;;5094921;28;20027;-78
2021/07/19 01:23:32;;;;;;;8.95;5.57;;;17.40;88.90;;;;;;5093459;28;20097;-77
2021/07/19 01:26:17;;;;;;;11.02;5.88;;;17.30;88.80;;;;;;5093222;28;20123;-76
2021/07/19 01:28:48;;;;;;;8.30;5.70;;;17.30;89.00;;;;;;5094719;28;20020;-76
2021/07/19 01:31:18;;;;;;;6.43;5.57;;;17.20;89.30;;;;;;5076449;28;20494;-77
2021/07/19 01:33:50;;;;;;;9.00;6.32;;;17.10;89.50;;;;;;5094896;28;20377;-77
2021/07/19 01:36:22;;;;;;;7.88;5.70;;;17.10;89.80;;;;;;5095140;28;20474;-75
2021/07/19 01:38:48;;;;;;;8.50;5.50;;;17.10;89.80;;;;;;5093102;28;20024;-77
2021/07/19 01:41:17;;;;;;;11.73;6.07;;;17.00;89.90;;;;;;5076405;28;20047;-76
2021/07/19 01:43:45;;;;;;;8.75;5.47;;;17.00;90.00;;;;;;5093743;28;20053;-76
2021/07/19 01:46:12;;;;;;;7.60;5.90;;;17.10;90.00;;;;;;5093254;28;20024;-76
2021/07/19 01:48:38;;;;;;;6.60;5.90;;;17.10;90.20;;;;;;5093038;28;20219;-76
2021/07/19 01:51:04;;;;;;;10.45;6.20;;;17.20;89.80;;;;;;5093352;28;20028;-79
2021/07/19 01:53:30;;;;;;;7.53;5.75;;;17.20;89.70;;;;;;5093522;28;20036;-76
2021/07/19 01:55:58;;;;;;;7.72;6.15;;;17.10;89.90;;;;;;5093832;28;20154;-76
2021/07/19 01:58:25;;;;;;;7.43;6.30;;;17.10;90.00;;;;;;5093733;28;20424;-76
2021/07/19 02:00:51;;;;;;;10.50;7.18;;;17.20;90.00;;;;;;5093918;28;20055;-76
2021/07/19 02:03:17;;;;;;;10.85;7.32;;;17.20;90.00;;;;;;5095752;28;20031;-76
2021/07/19 02:05:44;;;;;;;10.30;7.18;;;17.30;89.90;;;;;;5101560;28;20036;-75
2021/07/19 02:08:15;;;;;;;12.73;7.68;;;17.30;89.70;;;;;;5113588;28;20023;-76
2021/07/19 02:10:43;;;;;;;9.55;7.22;;;17.30;89.60;;;;;;5117537;28;20024;-76
2021/07/19 02:13:10;;;;;;;12.68;7.93;;;17.30;89.80;;;;;;5098715;28;20058;-87
2021/07/19 02:15:38;;;;;;;11.55;7.75;;;17.30;89.90;;;;;;5115769;28;20028;-77
2021/07/19 02:18:06;;;;;;;8.02;6.80;;;17.30;90.10;;;;;;5115807;28;20013;-75
2021/07/19 02:20:32;;;;;;;10.38;8.07;;;17.20;89.80;;;;;;5115235;28;20028;-75
2021/07/19 02:23:01;;;;;;;8.93;7.07;;;17.30;89.80;;;;;;5081276;28;20032;-74
2021/07/19 02:25:28;;;;;;;11.90;7.65;;;17.20;89.80;;;;;;5116479;28;20155;-76
2021/07/19 02:27:55;;;;;;;9.95;7.55;;;17.20;90.00;;;;;;5084281;28;20031;-75
2021/07/19 02:30:22;;;;;;;9.55;7.07;;;17.10;90.00;;;;;;5078207;28;20501;-76
2021/07/19 02:32:53;;;;;;;8.30;6.60;;;17.00;90.00;;;;;;5094896;28;20111;-76
2021/07/19 02:35:19;;;;;;;10.32;7.25;;;16.80;90.20;;;;;;5094090;28;20024;-76
2021/07/19 02:37:48;;;;;;;7.68;6.63;;;16.70;90.40;;;;;;5095384;28;20041;-75
2021/07/19 02:40:16;;;;;;;11.88;7.05;;;16.60;90.50;;;;;;5094292;28;20020;-77
2021/07/19 02:42:46;;;;;;;9.88;6.82;;;16.50;90.60;;;;;;5095313;28;20028;-75
2021/07/19 02:45:14;;;;;;;10.15;7.57;;;16.40;90.80;;;;;;5094198;28;20055;-80
2021/07/19 02:47:44;;;;;;;8.00;7.03;;;16.40;90.90;;;;;;5093931;28;20429;-75
2021/07/19 02:50:12;;;;;;;10.73;7.50;;;16.50;90.90;;;;;;5093616;28;20047;-80
2021/07/19 02:52:40;;;;;;;10.32;7.20;;;16.50;90.80;;;;;;5075863;28;20475;-75
2021/07/19 02:55:07;;;;;;;8.35;6.78;;;16.50;90.80;;;;;;5092632;28;20054;-75
2021/07/19 02:57:35;;;;;;;8.90;7.50;;;16.60;90.80;;;;;;5092665;28;20095;-75
2021/07/19 03:00:05;;;;;;;9.85;6.55;;;16.60;90.70;;;;;;5093941;28;20020;-74
2021/07/19 03:02:31;;;;;;;10.07;7.72;;;16.70;90.70;;;;;;5075763;28;20024;-75
2021/07/19 03:04:58;;;;;;;13.77;7.45;;;16.70;90.70;;;;;;5093809;28;20039;-74
2021/07/19 03:07:24;;;;;;;8.43;7.55;;;16.70;90.60;;;;;;5075965;28;20070;-75
2021/07/19 03:09:56;;;;;;;11.02;8.20;;;16.60;90.60;;;;;;5092231;28;20046;-75
2021/07/19 03:12:23;;;;;;;11.00;7.38;;;16.60;90.60;;;;;;5095522;28;20016;-76
2021/07/19 03:14:50;;;;;;;10.38;7.70;;;16.60;90.60;;;;;;5095875;28;20096;-74
2021/07/19 03:17:20;;;;;;;9.02;7.15;;;16.50;90.60;;;;;;5078767;28;20024;-76
2021/07/19 03:19:50;;;;;;;14.85;8.45;;;16.40;90.80;;;;;;5095651;28;20033;-75
2021/07/19 03:22:17;;;;;;;10.82;7.60;;;16.40;90.90;;;;;;5095481;28;20058;-81
2021/07/19 03:24:45;;;;;;;11.85;7.47;;;16.30;90.90;;;;;;5096455;28;20553;-75
2021/07/19 03:27:11;;;;;;;11.70;8.45;;;16.30;91.00;;;;;;5097282;28;20108;-75
2021/07/19 03:29:37;;;;;;;11.20;8.00;;;16.30;91.00;;;;;;5078620;28;20107;-75
2021/07/19 03:32:07;;;;;;;14.25;8.65;;;16.20;91.00;;;;;;5096750;28;20083;-75
2021/07/19 03:34:33;;;;;;;9.60;8.18;;;16.10;91.00;;;;;;5095437;28;20070;-75
2021/07/19 03:36:58;;;;;;;13.48;8.35;;;16.00;91.20;;;;;;5095490;28;20028;-75
2021/07/19 03:39:24;;;;;;;12.43;8.35;;;16.00;91.20;;;;;;5095450;28;20499;-76
2021/07/19 03:41:51;;;;;;;14.13;8.20;;;16.00;91.30;;;;;;5095257;28;20388;-75
2021/07/19 03:44:18;;;;;;;11.07;8.48;;;16.00;91.30;;;;;;5079172;28;20056;-78
2021/07/19 03:46:45;;;;;;;12.73;9.13;;;16.00;91.20;;;;;;5079154;28;20028;-75
2021/07/19 03:49:13;;;;;;;13.15;8.98;;;16.00;91.20;;;;;;5095368;28;20027;-76
2021/07/19 03:51:45;;;;;;;13.43;9.13;;;16.00;91.30;;;;;;5095637;28;20024;-76
2021/07/19 03:54:11;;;;;;;11.07;9.13;;;16.10;91.30;;;;;;5096144;28;20085;-75
2021/07/19 03:56:39;;;;;;;10.95;9.27;;;16.20;91.30;;;;;;5078622;28;20111;-77
2021/07/19 03:59:07;;;;;;;12.48;8.85;;;16.30;91.20;;;;;;5097287;28;20511;-76
2021/07/19 04:01:38;;;;;;;11.60;8.50;;;16.40;91.10;;;;;;5098755;28;20027;-76
2021/07/19 04:04:07;;;;;;;10.15;9.07;;;16.40;90.90;;;;;;5114148;28;20028;-76
2021/07/19 04:06:33;;;;;;;12.93;9.40;;;16.50;90.80;;;;;;5084217;28;20026;-77
2021/07/19 04:09:00;;;;;;;10.20;8.68;;;16.60;90.60;;;;;;5117768;28;20031;-77
2021/07/19 04:11:27;;;;;;;10.63;8.88;;;16.60;90.50;;;;;;5101750;28;20012;-81
2021/07/19 04:13:54;;;;;;;9.20;8.20;;;16.70;90.50;;;;;;5102236;28;20040;-76
2021/07/19 04:16:22;;;;;;;11.80;9.88;;;16.70;90.30;;;;;;5119431;28;20000;-81
2021/07/19 04:18:49;;;;;;;11.55;9.23;;;16.70;90.30;;;;;;5119715;28;20095;-77
2021/07/19 04:21:15;;;;;;;13.63;9.65;;;16.80;90.20;;;;;;5120105;28;20012;-74
2021/07/19 04:23:42;;;;;;;12.18;8.82;;;16.80;90.10;;;;;;5119217;28;20030;-79
2021/07/19 04:26:11;;;;;;;12.18;8.82;;;16.90;90.00;;;;;;5108937;28;20035;-75
2021/07/19 04:28:39;;;;;;;10.40;8.32;;;17.10;89.70;;;;;;5096871;28;20549;-75
2021/07/19 04:31:05;;;;;;;14.20;9.73;;;17.30;89.20;;;;;;5097608;28;20062;-75
2021/07/19 04:33:31;;;;;;;9.93;8.93;;;17.70;88.30;;;;;;5097593;28;20034;-76
2021/07/19 04:35:56;;;;;;;10.48;8.85;;;18.50;86.30;;;;;;5062377;28;20029;-76
2021/07/19 04:38:23;;;;;;;10.65;8.02;;;19.40;83.10;;;;;;5097085;28;20025;-76
2021/07/19 04:40:52;;;;;;;11.57;8.05;;;20.30;80.10;;;;;;5096263;28;20024;-76
2021/07/19 04:43:18;;;;;;;9.63;7.25;;;21.00;77.30;;;;;;5096564;28;20059;-75
2021/07/19 04:45:48;;;;;;;9.68;7.00;;;21.60;74.80;;;;;;5078952;28;20020;-75
2021/07/19 04:48:15;;;;;;;11.68;7.18;;;22.10;73.00;;;;;;5094768;28;20056;-76
2021/07/19 04:50:41;;;;;;;8.32;6.28;;;22.60;70.80;;;;;;5077183;28;20122;-76
2021/07/19 04:53:09;;;;;;;10.90;6.47;;;22.90;69.80;;;;;;5094045;28;20468;-75
2021/07/19 04:55:36;;;;;;;8.85;7.05;;;23.30;68.80;;;;;;5077282;28;20042;-76
2021/07/19 04:58:04;;;;;;;6.80;6.00;;;23.70;67.40;;;;;;5095193;28;20080;-76
2021/07/19 05:00:31;;;;;;;11.63;7.10;;;24.10;66.20;;;;;;5094845;28;20372;-76
2021/07/19 05:02:58;;;;;;;11.52;6.65;;;24.40;64.80;;;;;;5095572;28;20021;-75
2021/07/19 05:05:25;;;;;;;8.65;5.72;;;24.70;64.00;;;;;;5094360;28;20388;-76
2021/07/19 05:07:52;;;;;;;8.45;6.53;;;25.10;63.00;;;;;;5077279;28;20385;-76
2021/07/19 05:10:19;;;;;;;10.27;6.88;;;25.50;61.70;;;;;;5095579;28;20047;-76
2021/07/19 05:12:51;;;;;;;8.02;6.38;;;25.70;60.80;;;;;;5076589;28;20024;-77
2021/07/19 05:15:18;;;;;;;9.35;6.57;;;26.10;60.10;;;;;;5094452;28;20460;-76
2021/07/19 05:17:44;;;;;;;10.23;6.85;;;25.80;59.00;;;;;;5095115;28;20024;-76
2021/07/19 05:20:14;;;;;;;11.88;7.15;;;25.40;60.00;;;;;;5094764;28;20115;-76
2021/07/19 05:22:53;;;;;;;11.63;8.38;;;25.00;60.50;;;;;;5096123;28;20115;-75
2021/07/19 05:25:30;;;;;;;10.82;6.88;;;25.00;60.50;;;;;;5096463;28;20491;-75
2021/07/19 05:27:58;;;;;;;10.23;7.55;;;25.00;60.20;;;;;;5094976;28;20119;-76
2021/07/19 05:30:28;;;;;;;10.48;7.70;;;25.50;60.50;;;;;;5095320;28;20045;-75
2021/07/19 05:32:54;;;;;;;9.80;8.05;;;26.00;58.10;;;;;;5097447;28;20051;-75
2021/07/19 05:35:21;;;;;;;10.60;8.05;;;26.10;57.90;;;;;;5093277;28;20040;-76
2021/07/19 05:37:48;;;;;;;11.75;6.80;;;26.40;57.40;;;;;;5077822;28;20028;-76
2021/07/19 05:40:15;;;;;;;10.23;7.43;;;26.90;56.60;;;;;;5093337;28;20111;-75
2021/07/19 05:42:41;;;;;;;10.00;7.10;;;26.80;55.30;;;;;;5096390;28;20046;-76
2021/07/19 05:45:08;;;;;;;8.68;7.38;;;26.20;56.30;;;;;;5094744;28;20487;-75
2021/07/19 05:47:34;;;;;;;10.60;7.32;;;26.30;57.00;;;;;;5092794;28;20464;-78
2021/07/19 05:50:00;;;;;;;9.60;6.70;;;26.20;56.70;;;;;;5076141;28;20032;-76
2021/07/19 05:52:26;;;;;;;9.48;6.97;;;26.70;55.70;;;;;;5077455;28;20036;-76
2021/07/19 05:54:52;;;;;;;11.90;8.07;;;27.10;54.80;;;;;;5094320;28;20468;-76
2021/07/19 05:57:18;;;;;;;9.77;7.32;;;27.10;54.20;;;;;;5093174;28;20090;-75
2021/07/19 05:59:44;;;;;;;8.93;6.50;;;26.40;55.90;;;;;;5094182;28;20020;-76
2021/07/19 06:02:09;;;;;;;11.25;7.80;;;26.70;56.50;;;;;;5093809;28;20099;-75
2021/07/19 06:04:35;;;;;;;8.77;7.60;;;27.30;55.10;;;;;;5092944;28;20038;-80
2021/07/19 06:07:01;;;;;;;9.93;7.07;;;27.70;53.10;;;;;;5092999;28;20028;-75
2021/07/19 06:09:27;;;;;;;9.20;7.45;;;28.20;52.90;;;;;;5093114;28;20468;-76
2021/07/19 06:11:53;;;;;;;9.85;7.25;;;28.30;51.10;;;;;;5075961;28;20032;-75
2021/07/19 06:14:18;;;;;;;10.38;7.40;;;28.00;51.50;;;;;;5075873;28;20048;-76
2021/07/19 06:16:44;;;;;;;11.65;8.02;;;27.70;52.10;;;;;;5076045;28;20472;-77
2021/07/19 06:19:10;;;;;;;11.05;8.10;;;27.80;51.80;;;;;;5093013;28;20029;-75
2021/07/19 06:21:35;;;;;;;9.88;7.75;;;27.40;51.90;;;;;;5076077;28;20032;-76
2021/07/19 06:24:01;;;;;;;11.13;7.95;;;27.40;52.60;;;;;;5092766;28;20032;-76
2021/07/19 06:26:27;;;;;;;10.55;8.30;;;27.50;53.50;;;;;;5076712;28;20414;-75
2021/07/19 06:28:52;;;;;;;10.90;8.63;;;27.70;52.00;;;;;;5060388;28;20314;-75
2021/07/19 06:31:18;;;;;;;12.52;9.75;;;27.40;52.10;;;;;;5080847;28;20028;-77
2021/07/19 06:33:44;;;;;;;10.40;8.98;;;27.80;52.50;;;;;;5083523;28;20082;-74
2021/07/19 06:36:09;;;;;;;11.13;9.40;;;28.10;51.00;;;;;;5101071;28;20054;-75
2021/07/19 06:38:35;;;;;;;8.85;7.85;;;28.50;50.30;;;;;;5084134;28;20059;-76
2021/07/19 06:41:00;;;;;;;9.82;8.10;;;28.10;49.20;;;;;;5079969;28;20024;-75
2021/07/19 06:43:26;;;;;;;8.85;7.18;;;27.50;51.40;;;;;;5093468;28;20025;-74
2021/07/19 06:45:52;;;;;;;8.93;7.30;;;27.30;51.10;;;;;;5075312;28;20028;-75
2021/07/19 06:48:17;;;;;;;10.15;8.32;;;27.30;52.20;;;;;;5079304;28;20032;-75
2021/07/19 06:50:43;;;;;;;14.32;8.18;;;26.80;51.90;;;;;;5079431;28;20036;-76
2021/07/19 06:53:09;;;;;;;9.23;7.55;;;26.80;52.60;;;;;;5096228;28;20028;-76
2021/07/19 06:55:35;;;;;;;11.27;8.00;;;27.00;53.00;;;;;;5097724;28;20024;-74
2021/07/19 06:58:01;;;;;;;8.88;7.97;;;27.40;50.80;;;;;;5097408;28;20087;-75
2021/07/19 07:00:27;;;;;;;12.95;7.32;;;26.80;51.00;;;;;;5096116;28;20119;-75
2021/07/19 07:02:52;;;;;;;8.82;6.45;;;26.00;52.70;;;;;;5097545;28;20032;-75
2021/07/19 07:05:18;;;;;;;9.70;6.85;;;25.90;53.60;;;;;;5095743;28;20032;-75
2021/07/19 07:07:44;;;;;;;12.30;7.60;;;25.60;53.80;;;;;;5078905;28;20064;-80
2021/07/19 07:10:11;;;;;;;9.10;6.18;;;25.70;53.30;;;;;;5097800;28;20020;-75
2021/07/19 07:12:39;;;;;;;8.90;6.70;;;25.60;54.20;;;;;;5078906;28;20078;-73
2021/07/19 07:15:06;;;;;;;10.23;7.13;;;26.20;52.90;;;;;;5097146;28;20490;-75
2021/07/19 07:17:32;;;;;;;7.70;6.07;;;26.70;51.90;;;;;;5095906;28;20077;-75
2021/07/19 07:19:58;;;;;;;7.95;6.35;;;26.80;52.20;;;;;;5096474;28;20032;-77
2021/07/19 07:22:25;;;;;;;8.75;6.20;;;27.50;50.60;;;;;;5096049;28;20035;-75
2021/07/19 07:24:51;;;;;;;11.85;7.00;;;28.20;49.10;;;;;;5096886;28;20020;-75
2021/07/19 07:27:19;;;;;;;6.95;6.03;;;27.80;48.80;;;;;;5096943;28;20032;-76
2021/07/19 07:29:45;;;;;;;8.13;6.40;;;27.40;49.90;;;;;;5096067;28;20020;-80
2021/07/19 07:32:12;;;;;;;7.13;6.43;;;27.70;50.30;;;;;;5095611;28;20044;-75
2021/07/19 07:34:38;;;;;;;8.73;5.63;;;27.80;48.90;;;;;;5096461;28;20517;-75
2021/07/19 07:37:05;;;;;;;7.82;5.75;;;26.90;49.50;;;;;;5078736;28;20471;-75
2021/07/19 07:39:31;;;;;;;7.72;6.15;;;26.70;51.90;;;;;;5096897;28;20031;-75
2021/07/19 07:41:57;;;;;;;8.10;6.20;;;27.10;49.60;;;;;;5095312;28;20418;-75
2021/07/19 07:44:23;;;;;;;10.02;6.68;;;26.90;50.60;;;;;;5079365;28;20028;-76
2021/07/19 07:46:49;;;;;;;8.55;6.50;;;26.40;51.40;;;;;;5095665;28;20046;-81
2021/07/19 07:49:15;;;;;;;8.05;5.90;;;25.80;52.90;;;;;;5096884;28;20091;-78
2021/07/19 07:51:41;;;;;;;9.10;6.78;;;26.30;53.60;;;;;;5096735;28;20039;-76
2021/07/19 07:54:07;;;;;;;8.77;7.03;;;26.90;50.60;;;;;;5095912;28;20127;-76
2021/07/19 07:56:39;;;;;;;9.35;6.82;;;26.50;48.70;;;;;;5095103;28;20490;-77
2021/07/19 07:59:04;;;;;;;7.93;6.45;;;25.70;51.70;;;;;;5094718;28;20024;-76
2021/07/19 08:01:30;;;;;;;6.88;5.93;;;25.80;52.40;;;;;;5095092;28;20582;-77
2021/07/19 08:03:56;;;;;;;9.95;6.95;;;25.80;51.30;;;;;;5077910;28;20053;-76
2021/07/19 08:06:21;;;;;;;8.15;7.05;;;25.20;52.40;;;;;;5094797;28;20028;-81
2021/07/19 08:08:47;;;;;;;11.10;6.97;;;24.80;54.50;;;;;;5094626;28;20032;-77
2021/07/19 08:11:13;;;;;;;10.32;7.88;;;24.60;55.00;;;;;;5078436;28;20024;-77
2021/07/19 08:13:38;;;;;;;9.52;7.38;;;24.20;55.80;;;;;;5094182;28;20052;-78
2021/07/19 08:16:05;;;;;;;8.85;6.80;;;24.10;57.00;;;;;;5096208;28;20402;-78
2021/07/19 08:18:31;;;;;;;9.90;7.90;;;24.30;56.90;;;;;;5095635;28;20031;-75
2021/07/19 08:20:57;;;;;;;10.30;7.60;;;24.40;56.10;;;;;;5096698;28;20031;-78
2021/07/19 08:23:23;;;;;;;10.63;7.82;;;24.30;56.60;;;;;;5078313;28;20039;-75
2021/07/19 08:25:48;;;;;;;11.63;8.00;;;23.90;57.00;;;;;;5094065;28;20035;-77
2021/07/19 08:28:14;;;;;;;10.63;7.82;;;23.50;58.30;;;;;;5095517;28;20020;-78
2021/07/19 08:30:40;;;;;;;9.73;7.65;;;23.40;59.10;;;;;;5095649;28;20081;-75
2021/07/19 08:33:06;;;;;;;10.45;8.48;;;23.50;59.00;;;;;;5077319;28;20376;-74
2021/07/19 08:35:32;;;;;;;11.80;8.15;;;23.40;59.30;;;;;;5094850;28;20047;-77
2021/07/19 08:37:58;;;;;;;9.88;8.05;;;23.60;59.20;;;;;;5077054;28;20028;-75
2021/07/19 08:40:25;;;;;;;9.70;8.02;;;23.80;57.50;;;;;;5095146;28;20035;-75
2021/07/19 08:42:52;;;;;;;10.07;7.88;;;23.60;57.70;;;;;;5094271;28;20164;-75
2021/07/19 08:45:18;;;;;;;11.73;8.00;;;23.40;58.30;;;;;;5094101;28;20144;-75
2021/07/19 08:47:49;;;;;;;10.45;8.38;;;23.40;59.30;;;;;;5077404;28;20369;-77
2021/07/19 08:50:16;;;;;;;10.07;8.20;;;23.20;58.20;;;;;;5094142;28;20012;-78
2021/07/19 08:52:47;;;;;;;12.15;8.27;;;23.00;60.00;;;;;;5094023;28;20032;-75
2021/07/19 08:55:13;;;;;;;12.07;8.48;;;23.20;60.00;;;;;;5094939;28;20116;-75
2021/07/19 08:57:40;;;;;;;11.18;8.07;;;23.10;60.10;;;;;;5095515;28;20024;-75
2021/07/19 09:00:08;;;;;;;11.85;8.02;;;23.00;60.20;;;;;;5093751;28;20028;-75
2021/07/19 09:02:34;;;;;;;9.30;7.15;;;22.90;61.00;;;;;;5093747;28;20111;-75
2021/07/19 09:05:00;;;;;;;12.02;8.23;;;22.90;61.50;;;;;;5093417;28;20500;-75
2021/07/19 09:07:25;;;;;;;10.65;7.85;;;22.70;61.50;;;;;;5076659;28;20020;-75
2021/07/19 09:09:52;;;;;;;11.88;7.80;;;22.80;61.70;;;;;;5093099;28;20046;-74
2021/07/19 09:12:39;;;;;;;19.38;8.77;;;22.70;61.50;;;;;;5094828;28;20024;-74
2021/07/19 09:15:10;;;;;;;15.27;9.15;;;22.40;62.90;;;;;;5093392;28;20032;-74
2021/07/19 09:17:36;;;;;;;11.63;8.10;;;22.60;62.80;;;;;;5095163;28;20024;-73
2021/07/19 09:20:04;;;;;;;10.65;8.23;;;22.50;61.60;;;;;;5094834;28;20028;-75
2021/07/19 09:22:33;;;;;;;11.90;7.85;;;22.50;62.50;;;;;;5094616;28;20133;-74
2021/07/19 09:25:08;;;;;;;13.85;8.00;;;22.70;62.30;;;;;;5093186;28;20032;-79
2021/07/19 09:27:33;;;;;;;11.45;8.13;;;23.10;62.00;;;;;;5094519;28;20106;-77
2021/07/19 09:29:59;;;;;;;11.60;7.97;;;23.50;61.00;;;;;;5094217;28;20535;-82
2021/07/19 09:32:25;;;;;;;11.77;9.50;;;23.70;60.60;;;;;;5093674;28;20055;-78
2021/07/19 09:34:50;;;;;;;13.70;9.02;;;24.00;60.10;;;;;;5093196;28;20358;-75
2021/07/19 09:37:17;;;;;;;13.73;9.13;;;24.20;58.20;;;;;;5093527;28;20491;-78
2021/07/19 09:39:46;;;;;;;11.38;7.90;;;23.60;59.00;;;;;;5092797;28;20475;-74
2021/07/19 09:42:19;;;;;;;10.63;8.80;;;23.40;59.40;;;;;;5092692;28;20372;-74
2021/07/19 09:44:55;;;;;;;11.23;8.38;;;23.50;60.30;;;;;;5094723;28;20024;-73
2021/07/19 09:47:40;;;;;;;10.63;7.95;;;23.80;59.30;;;;;;5092789;28;20485;-73
2021/07/19 09:50:18;;;;;;;11.95;8.35;;;23.60;58.90;;;;;;5094091;28;20028;-76
2021/07/19 09:52:44;;;;;;;10.05;8.02;;;23.40;59.00;;;;;;5094345;28;20065;-76
2021/07/19 09:55:28;;;;;;;11.80;9.60;;;23.40;58.90;;;;;;5096442;28;20028;-74
2021/07/19 09:57:57;;;;;;;9.85;8.40;;;23.60;59.60;;;;;;5060582;28;20032;-74
2021/07/19 10:00:27;;;;;;;11.57;8.65;;;24.20;58.80;;;;;;5094658;28;20540;-74
2021/07/19 10:02:53;;;;;;;11.02;8.55;;;24.50;56.20;;;;;;5094097;28;20056;-75
2021/07/19 10:05:30;;;;;;;12.88;8.63;;;24.50;55.10;;;;;;5094130;28;20070;-75
2021/07/19 10:07:59;;;;;;;11.60;9.10;;;24.80;56.00;;;;;;5094160;28;20094;-75
2021/07/19 10:10:35;;;;;;;12.18;9.63;;;25.30;54.80;;;;;;5093514;28;20049;-75
2021/07/19 10:13:04;;;;;;;12.85;10.90;;;25.40;53.70;;;;;;5094234;28;20048;-78
2021/07/19 10:15:31;;;;;;;12.32;10.05;;;25.80;53.90;;;;;;5076214;28;20036;-74
2021/07/19 10:17:58;;;;;;;11.07;9.98;;;26.00;51.50;;;;;;5092856;28;20051;-74
2021/07/19 10:20:23;;;;;;;11.05;9.70;;;25.90;52.40;;;;;;5093133;28;20020;-74
2021/07/19 10:22:49;;;;;;;10.38;8.75;;;26.00;52.60;;;;;;5093323;28;20032;-74
2021/07/19 10:25:16;;;;;;;13.73;10.80;;;25.90;51.10;;;;;;5092017;28;20427;-74
2021/07/19 10:27:44;;;;;;;11.98;9.85;;;25.80;52.30;;;;;;5092400;28;20456;-73
2021/07/19 10:30:10;;;;;;;11.73;9.73;;;25.40;51.30;;;;;;5075593;28;20360;-77
2021/07/19 10:32:37;;;;;;;11.10;9.40;;;24.80;53.20;;;;;;5076189;28;20055;-73
2021/07/19 10:35:05;;;;;;;11.07;9.60;;;25.00;54.50;;;;;;5093320;28;20502;-73
2021/07/19 10:37:39;;;;;;;12.55;10.00;;;25.20;52.30;;;;;;5094850;28;20024;-72
2021/07/19 10:40:12;;;;;;;12.10;9.35;;;25.00;53.00;;;;;;5093993;28;20403;-74
2021/07/19 10:42:42;;;;;;;12.27;10.50;;;25.20;53.50;;;;;;5093828;28;20012;-73
2021/07/19 10:45:16;;;;;;;24.88;11.60;;;25.70;54.00;;;;;;5093264;28;20468;-77
2021/07/19 10:47:56;;;;;;;28.35;13.55;;;26.60;53.20;;;;;;5093584;28;20095;-73
2021/07/19 10:50:26;;;;;;;28.95;14.65;;;27.40;52.40;;;;;;5093675;28;20103;-73
2021/07/19 10:52:58;;;;;;;20.13;13.07;;;27.90;49.80;;;;;;5076155;28;20345;-74
2021/07/19 10:55:31;;;;;;;17.52;11.45;;;27.90;51.60;;;;;;5093820;28;20032;-73
2021/07/19 10:58:04;;;;;;;13.80;10.27;;;28.20;50.50;;;;;;5092884;28;20085;-74
2021/07/19 11:00:39;;;;;;;11.88;9.63;;;27.80;48.70;;;;;;5093977;28;20332;-73
2021/07/19 11:03:13;;;;;;;13.00;9.38;;;27.70;50.60;;;;;;5093509;28;20019;-74
2021/07/19 11:05:41;;;;;;;10.95;9.25;;;27.90;48.70;;;;;;5092796;28;20076;-74
2021/07/19 11:08:18;;;;;;;11.85;9.75;;;27.70;48.30;;;;;;5093232;28;20020;-72
2021/07/19 11:10:45;;;;;;;11.30;9.43;;;27.40;49.80;;;;;;5092152;28;20432;-74
2021/07/19 11:13:22;;;;;;;9.68;8.13;;;27.90;50.10;;;;;;5092612;28;20122;-76
2021/07/19 11:15:48;;;;;;;11.23;8.52;;;28.30;49.70;;;;;;5092882;28;20036;-73
2021/07/19 11:18:19;;;;;;;10.75;8.65;;;28.40;48.70;;;;;;5093245;28;20443;-79
2021/07/19 11:20:47;;;;;;;11.38;9.05;;;28.50;48.80;;;;;;5093155;28;20029;-73
2021/07/19 11:23:14;;;;;;;10.18;9.13;;;28.10;46.80;;;;;;5092804;28;20073;-78
2021/07/19 11:25:42;;;;;;;10.63;9.15;;;27.40;48.30;;;;;;5092839;28;20031;-73
2021/07/19 11:28:18;;;;;;;9.35;7.95;;;27.20;50.20;;;;;;5093210;28;20035;-75
2021/07/19 11:31:06;;;;;;;9.70;8.60;;;27.90;50.20;;;;;;5075916;28;20119;-75
2021/07/19 11:33:41;;;;;;;9.93;8.60;;;28.60;48.60;;;;;;5095577;28;20027;-74
2021/07/19 11:36:22;;;;;;;10.07;9.07;;;28.40;46.90;;;;;;5095646;28;20024;-75
2021/07/19 11:38:53;;;;;;;11.90;8.90;;;28.10;48.50;;;;;;5095676;28;20468;-74
2021/07/19 11:41:31;;;;;;;9.02;8.00;;;28.10;49.50;;;;;;5095548;28;20518;-75
2021/07/19 11:43:59;;;;;;;11.00;8.43;;;28.40;49.70;;;;;;5096534;28;20050;-75
2021/07/19 11:46:40;;;;;;;16.67;9.38;;;28.90;48.70;;;;;;5094831;28;20052;-74
2021/07/19 11:49:11;;;;;;;14.40;9.77;;;28.80;47.90;;;;;;5094870;28;20031;-77
2021/07/19 11:51:42;;;;;;;13.10;9.60;;;28.70;48.00;;;;;;5096580;28;20128;-74
2021/07/19 11:54:11;;;;;;;21.30;10.05;;;27.70;47.20;;;;;;5096252;28;20043;-73
2021/07/19 11:56:40;;;;;;;21.90;11.32;;;27.60;50.00;;;;;;5095184;28;20032;-73
2021/07/19 11:59:06;;;;;;;18.27;9.23;;;27.60;50.90;;;;;;5095762;28;20064;-76
2021/07/19 12:01:34;;;;;;;19.42;10.98;;;27.50;49.40;;;;;;5078401;28;20020;-75
2021/07/19 12:04:03;;;;;;;26.55;11.82;;;27.10;50.70;;;;;;5096148;28;20035;-75
2021/07/19 12:06:30;;;;;;;25.92;11.95;;;27.30;52.30;;;;;;5095723;28;20036;-75
2021/07/19 12:09:02;;;;;;;49.55;14.40;;;27.70;52.20;;;;;;5095452;28;20028;-75
2021/07/19 12:11:29;;;;;;;27.23;11.07;;;28.10;53.50;;;;;;5096607;28;20028;-75
2021/07/19 12:14:09;;;;;;;16.48;9.48;;;28.30;50.40;;;;;;5097699;28;20044;-74
2021/07/19 12:16:40;;;;;;;16.77;10.85;;;28.60;50.80;;;;;;5097378;28;20036;-75
2021/07/19 12:19:07;;;;;;;15.65;9.25;;;28.50;48.90;;;;;;5097179;28;20024;-74
2021/07/19 12:21:39;;;;;;;13.02;9.23;;;28.10;49.30;;;;;;5077939;28;20044;-74
2021/07/19 12:24:07;;;;;;;10.00;8.02;;;28.20;49.30;;;;;;5096695;28;20024;-74
2021/07/19 12:26:32;;;;;;;8.32;7.45;;;28.50;49.80;;;;;;5094670;28;20110;-74
2021/07/19 12:29:07;;;;;;;10.93;8.30;;;28.80;49.20;;;;;;5095715;28;20070;-73
2021/07/19 12:31:48;;;;;;;13.02;7.50;;;29.10;48.50;;;;;;5096990;28;20089;-73
2021/07/19 12:34:13;;;;;;;11.07;7.55;;;29.30;48.40;;;;;;5096605;28;20024;-76
2021/07/19 12:36:40;;;;;;;10.35;7.55;;;29.50;48.40;;;;;;5095562;28;20493;-83
2021/07/19 12:39:13;;;;;;;10.48;8.07;;;29.70;47.60;;;;;;5098758;28;20020;-75
2021/07/19 12:41:39;;;;;;;;;;;29.90;47.30;;;;;;5101209;28;20017;-76
2021/07/19 12:44:10;;;;;;;10.45;9.30;;;30.10;46.60;;;;;;5101908;28;19904;-74